createdAt,value
2022-10-05T00:01:37.190Z,3.20
2022-10-05T00:04:55.022Z,3.20
2022-10-05T00:08:25.324Z,3.07
2022-10-05T00:11:34.176Z,3.50
2022-10-05T00:14:53.855Z,3.10
2022-10-05T00:18:09.987Z,3.60
2022-10-05T00:21:39.869Z,2.85
2022-10-05T00:25:01.969Z,3.07
2022-10-05T00:28:26.010Z,3.55
2022-10-05T00:31:32.870Z,3.92
2022-10-05T00:34:48.857Z,3.05
2022-10-05T00:37:54.654Z,3.42
2022-10-05T00:41:25.107Z,3.17
2022-10-05T00:44:54.667Z,3.15
2022-10-05T00:48:38.870Z,3.45
2022-10-05T00:52:03.255Z,4.00
2022-10-05T00:55:41.855Z,3.42
2022-10-05T00:59:15.030Z,3.87
2022-10-05T01:02:36.930Z,3.22
2022-10-05T01:06:11.921Z,3.55
2022-10-05T01:09:39.971Z,3.60
2022-10-05T01:13:02.659Z,3.60
2022-10-05T01:16:26.034Z,3.43
2022-10-05T01:19:48.101Z,3.80
2022-10-05T01:23:31.876Z,3.65
2022-10-05T01:27:06.568Z,4.07
2022-10-05T01:30:24.955Z,3.50
2022-10-05T01:33:51.864Z,3.50
2022-10-05T01:37:07.452Z,3.58
2022-10-05T01:40:40.864Z,3.53
2022-10-05T01:43:54.715Z,3.60
2022-10-05T01:47:20.889Z,3.22
2022-10-05T01:50:53.951Z,3.47
2022-10-05T01:54:45.872Z,3.45
2022-10-05T01:58:16.904Z,3.80
2022-10-05T02:01:42.932Z,4.25
2022-10-05T02:05:05.873Z,3.78
2022-10-05T02:08:16.703Z,3.70
2022-10-05T02:11:31.051Z,3.70
2022-10-05T02:15:08.325Z,4.00
2022-10-05T02:18:22.892Z,2.97
2022-10-05T02:21:40.938Z,3.70
2022-10-05T02:25:01.092Z,3.43
2022-10-05T02:28:20.963Z,3.33
2022-10-05T02:31:56.010Z,3.87
2022-10-05T02:35:02.220Z,3.17
2022-10-05T02:38:32.880Z,3.55
2022-10-05T02:42:07.955Z,3.77
2022-10-05T02:45:23.020Z,3.10
2022-10-05T02:49:07.905Z,4.07
2022-10-05T02:52:24.068Z,3.30
2022-10-05T02:55:49.954Z,3.55
2022-10-05T02:59:13.882Z,3.97
2022-10-05T03:02:35.954Z,3.33
2022-10-05T03:05:51.896Z,3.30
2022-10-05T03:09:04.150Z,4.28
2022-10-05T03:12:41.892Z,4.05
2022-10-05T03:16:14.941Z,4.20
2022-10-05T03:19:45.391Z,3.97
2022-10-05T03:23:00.642Z,3.72
2022-10-05T03:26:22.148Z,4.20
2022-10-05T03:29:50.896Z,4.20
2022-10-05T03:33:21.952Z,4.47
2022-10-05T03:36:42.454Z,4.30
2022-10-05T03:40:06.007Z,4.10
2022-10-05T03:43:35.538Z,3.72
2022-10-05T03:47:09.927Z,4.22
2022-10-05T03:50:39.929Z,3.60
2022-10-05T03:53:56.758Z,4.32
2022-10-05T03:57:28.939Z,3.83
2022-10-05T04:00:40.669Z,3.92
2022-10-05T04:03:54.904Z,4.03
2022-10-05T04:07:10.957Z,4.53
2022-10-05T04:10:21.027Z,4.30
2022-10-05T04:13:43.898Z,4.25
2022-10-05T04:17:07.940Z,4.37
2022-10-05T04:20:31.842Z,5.20
2022-10-05T04:23:59.886Z,4.80
2022-10-05T04:27:15.058Z,4.28
2022-10-05T04:30:29.911Z,4.87
2022-10-05T04:33:45.147Z,4.32
2022-10-05T04:36:58.616Z,4.82
2022-10-05T04:40:47.949Z,4.50
2022-10-05T04:44:18.254Z,5.22
2022-10-05T04:47:55.922Z,4.35
2022-10-05T04:51:31.919Z,4.47
2022-10-05T04:55:12.319Z,4.45
2022-10-05T04:58:53.915Z,4.40
2022-10-05T05:02:31.928Z,4.47
2022-10-05T05:06:18.156Z,4.75
2022-10-05T05:09:56.035Z,4.55
2022-10-05T05:13:42.921Z,4.45
2022-10-05T05:17:04.243Z,4.97
2022-10-05T05:20:49.066Z,5.03
2022-10-05T06:02:38.095Z,6.65
2022-10-05T06:05:58.084Z,5.70
2022-10-05T06:09:33.952Z,6.28
2022-10-05T06:33:18.086Z,5.60
2022-10-05T06:36:52.045Z,5.82
2022-10-05T06:40:07.918Z,5.97
2022-10-05T06:43:41.227Z,6.57
2022-10-05T06:47:44.789Z,6.87
2022-10-05T07:08:25.315Z,5.65
2022-10-05T07:12:38.462Z,5.37
2022-10-05T07:25:19.515Z,5.62
2022-10-05T07:33:37.369Z,5.50
2022-10-05T07:45:38.348Z,5.80
2022-10-05T08:25:41.126Z,7.25
2022-10-05T08:29:33.371Z,7.75
2022-10-05T08:32:44.368Z,8.20
2022-10-05T08:40:35.987Z,9.25
2022-10-05T09:45:29.191Z,6.60
2022-10-05T09:49:35.196Z,6.20
2022-10-05T10:01:48.376Z,3.67
2022-10-05T10:05:09.470Z,3.90
2022-10-05T10:09:08.062Z,4.25
2022-10-05T10:13:31.224Z,4.20
2022-10-05T10:17:52.084Z,4.53
2022-10-05T10:30:51.690Z,3.62
2022-10-05T10:42:58.380Z,4.60
2022-10-05T10:47:24.048Z,4.03
2022-10-05T11:03:29.204Z,4.25
2022-10-05T11:07:49.245Z,5.32
2022-10-05T11:11:39.336Z,5.00
2022-10-05T11:15:30.208Z,4.73
2022-10-05T11:23:28.731Z,5.50
2022-10-05T11:27:17.355Z,6.05
2022-10-05T11:31:13.243Z,5.50
2022-10-05T11:34:51.199Z,5.40
2022-10-05T11:38:40.040Z,5.68
2022-10-05T11:42:03.485Z,5.30
2022-10-05T11:45:34.598Z,5.60
2022-10-05T11:49:12.784Z,5.20
2022-10-05T11:52:56.552Z,5.57
2022-10-05T12:00:31.104Z,4.87
2022-10-05T12:04:02.491Z,5.03
2022-10-05T12:08:03.078Z,5.40
2022-10-05T12:11:38.640Z,5.07
2022-10-05T12:15:05.111Z,5.35
2022-10-05T12:19:14.175Z,5.35
2022-10-05T12:22:37.048Z,4.95
2022-10-05T12:26:27.376Z,5.35
2022-10-05T12:29:53.066Z,5.30
2022-10-05T12:34:03.594Z,5.28
2022-10-05T12:38:20.936Z,4.57
2022-10-05T12:42:12.063Z,3.55
2022-10-05T12:45:42.199Z,4.32
2022-10-05T12:49:11.662Z,4.00
2022-10-05T12:52:37.131Z,3.17
2022-10-05T12:56:10.232Z,3.92
2022-10-05T12:59:39.538Z,4.50
2022-10-05T13:03:20.296Z,3.20
2022-10-05T13:07:10.330Z,2.60
2022-10-05T13:11:15.016Z,2.20
2022-10-05T13:15:00.338Z,2.47
2022-10-05T13:19:02.420Z,2.30
2022-10-05T13:22:32.037Z,2.08
2022-10-05T13:26:10.476Z,2.20
2022-10-05T13:29:54.540Z,2.00
2022-10-05T13:34:02.445Z,2.30
2022-10-05T13:38:10.197Z,2.20
2022-10-05T13:55:16.727Z,2.05
2022-10-05T13:58:52.906Z,2.62
2022-10-05T14:02:08.128Z,1.90
2022-10-05T14:05:27.143Z,2.33
2022-10-05T14:08:42.303Z,2.40
2022-10-05T14:12:18.568Z,2.50
2022-10-05T14:16:26.202Z,2.28
2022-10-05T14:23:25.974Z,2.73
2022-10-05T14:26:44.184Z,2.75
2022-10-05T14:30:06.412Z,2.67
2022-10-05T14:33:38.080Z,2.37
2022-10-05T14:37:03.124Z,2.08
2022-10-05T14:40:58.240Z,2.03
2022-10-05T14:44:28.054Z,2.10
2022-10-05T14:48:21.095Z,2.50
2022-10-05T14:51:33.171Z,2.10
2022-10-05T14:54:59.032Z,2.15
2022-10-05T14:58:44.218Z,2.30
2022-10-05T15:02:02.149Z,1.70
2022-10-05T15:05:29.076Z,2.00
2022-10-05T15:08:59.153Z,1.87
2022-10-05T15:12:03.623Z,2.60
2022-10-05T15:15:37.086Z,2.42
2022-10-05T15:19:04.139Z,2.20
2022-10-05T15:22:33.224Z,2.57
2022-10-05T15:26:49.392Z,2.20
2022-10-05T15:30:49.248Z,2.40
2022-10-05T15:34:20.916Z,2.78
2022-10-05T15:37:49.248Z,2.87
2022-10-05T15:41:31.445Z,2.50
2022-10-05T15:45:36.163Z,2.50
2022-10-05T15:49:09.772Z,2.12
2022-10-05T15:52:34.176Z,2.55
2022-10-05T15:55:50.247Z,1.87
2022-10-05T15:59:23.113Z,2.60
2022-10-05T16:02:47.210Z,2.35
2022-10-05T16:06:10.299Z,2.10
2022-10-05T16:09:53.127Z,2.50
2022-10-05T16:13:37.604Z,2.90
2022-10-05T16:17:25.892Z,4.33
2022-10-05T16:21:18.146Z,3.58
2022-10-05T16:24:52.176Z,2.70
2022-10-05T16:28:13.763Z,2.70
2022-10-05T16:31:47.901Z,2.67
2022-10-05T16:35:38.144Z,2.90
2022-10-05T16:39:14.286Z,2.40
2022-10-05T16:42:55.144Z,2.75
2022-10-05T16:46:55.314Z,2.70
2022-10-05T16:50:43.582Z,3.10
2022-10-05T16:54:38.290Z,2.93
2022-10-05T16:59:05.169Z,3.53
2022-10-05T17:03:16.271Z,3.97
2022-10-05T17:07:25.216Z,3.78
2022-10-05T17:11:08.013Z,3.93
2022-10-05T17:14:44.156Z,4.10
2022-10-05T17:18:03.108Z,3.58
2022-10-05T17:21:24.163Z,3.47
2022-10-05T17:25:23.530Z,4.72
2022-10-05T17:29:48.150Z,4.73
2022-10-05T17:33:23.494Z,5.17
2022-10-05T17:37:21.155Z,5.05
2022-10-05T17:41:27.464Z,5.18
2022-10-05T17:53:34.567Z,5.03
2022-10-05T17:57:18.463Z,5.00
2022-10-05T18:00:46.244Z,6.53
2022-10-05T18:04:35.982Z,5.35
2022-10-05T18:08:30.245Z,5.83
2022-10-05T18:11:50.243Z,6.60
2022-10-05T18:15:08.246Z,5.65
2022-10-05T18:18:33.342Z,6.18
2022-10-05T18:22:15.213Z,6.43
2022-10-05T18:25:28.725Z,5.60
2022-10-05T18:29:16.248Z,6.57
2022-10-05T18:32:40.216Z,5.62
2022-10-05T18:36:25.181Z,6.62
2022-10-05T18:39:53.947Z,5.53
2022-10-05T18:43:42.440Z,6.30
2022-10-05T18:47:11.825Z,6.63
2022-10-05T18:50:37.174Z,6.28
2022-10-05T18:53:51.224Z,6.80
2022-10-05T18:57:24.794Z,6.15
2022-10-05T19:00:55.181Z,6.83
2022-10-05T19:04:20.247Z,6.23
2022-10-05T19:08:04.209Z,6.93
2022-10-05T19:11:38.212Z,6.25
2022-10-05T19:15:03.434Z,6.25
2022-10-05T19:18:45.395Z,6.13
2022-10-05T19:22:03.792Z,6.60
2022-10-05T19:25:40.173Z,6.93
2022-10-05T19:29:36.228Z,7.65
2022-10-05T19:33:24.279Z,7.20
2022-10-05T19:37:12.296Z,7.00
2022-10-05T19:41:26.194Z,7.07
2022-10-05T19:44:52.528Z,7.78
2022-10-05T19:48:37.409Z,7.45
2022-10-05T19:52:19.248Z,6.95
2022-10-05T19:55:50.178Z,7.00
2022-10-05T19:59:44.884Z,6.67
2022-10-05T20:03:26.213Z,7.87
2022-10-05T20:06:48.336Z,7.00
2022-10-05T20:09:59.941Z,8.00
2022-10-05T20:13:33.182Z,7.27
2022-10-05T20:20:29.097Z,6.97
2022-10-05T20:23:44.228Z,7.20
2022-10-05T20:26:50.251Z,7.22
2022-10-05T20:30:05.572Z,7.40
2022-10-05T20:33:14.276Z,7.13
2022-10-05T20:36:25.076Z,7.12
2022-10-05T20:39:39.186Z,6.97
2022-10-05T20:42:41.542Z,7.95
2022-10-05T20:45:56.228Z,7.40
2022-10-05T20:48:58.868Z,7.30
2022-10-05T20:52:15.273Z,7.53
2022-10-05T20:55:50.215Z,7.50
2022-10-05T20:59:32.748Z,8.13
2022-10-05T21:03:27.223Z,8.47
2022-10-05T21:07:04.463Z,8.60
2022-10-05T21:10:19.244Z,7.93
2022-10-05T21:13:30.097Z,8.90
2022-10-05T21:17:24.487Z,8.63
2022-10-05T21:21:15.315Z,7.77
2022-10-05T21:25:03.284Z,8.50
2022-10-05T21:28:18.275Z,9.38
2022-10-05T21:31:28.449Z,8.55
2022-10-05T21:34:37.578Z,8.20
2022-10-05T21:38:29.737Z,7.90
2022-10-05T21:42:24.270Z,9.00
2022-10-05T21:45:33.108Z,9.55
2022-10-05T21:48:44.519Z,8.80
2022-10-05T21:51:53.138Z,8.13
2022-10-05T21:55:21.255Z,9.17
2022-10-05T21:58:51.296Z,8.33
2022-10-05T22:02:26.299Z,7.70
2022-10-05T22:06:27.519Z,7.80
2022-10-05T22:10:15.979Z,7.72
2022-10-05T22:14:04.362Z,7.57
2022-10-05T22:17:23.275Z,7.90
2022-10-05T22:20:27.442Z,7.60
2022-10-05T22:24:04.299Z,7.78
2022-10-05T22:27:20.238Z,7.75
2022-10-05T22:30:22.146Z,7.13
2022-10-05T22:33:37.275Z,7.33
2022-10-05T22:36:45.902Z,7.85
2022-10-05T22:39:54.238Z,7.12
2022-10-05T22:43:02.818Z,7.05
2022-10-05T22:46:19.398Z,8.00
2022-10-05T22:49:28.227Z,7.93
2022-10-05T22:52:36.815Z,8.13
2022-10-05T22:56:11.239Z,7.62
2022-10-05T22:59:46.256Z,7.82
2022-10-05T23:03:22.231Z,8.47
2022-10-05T23:06:58.523Z,7.90
2022-10-05T23:10:07.319Z,7.10
2022-10-05T23:13:35.707Z,7.07
2022-10-05T23:17:10.601Z,7.28
2022-10-05T23:20:39.242Z,7.50
2022-10-05T23:24:14.251Z,6.63
2022-10-05T23:27:49.261Z,7.47
2022-10-05T23:31:10.764Z,7.00
2022-10-05T23:34:25.307Z,7.03
2022-10-05T23:37:37.423Z,6.90
2022-10-05T23:40:46.519Z,6.67
2022-10-05T23:44:38.256Z,7.28
2022-10-05T23:48:22.278Z,7.47
2022-10-05T23:51:50.325Z,7.53
2022-10-05T23:54:58.845Z,7.27
2022-10-05T23:58:14.260Z,6.77
